Time;durP1;ratioP1;P1;durP2;ratioP2;P2;SDS_P1;SDS_P2;PMS_P1;PMS_P2;Temp;Humidity;BMP_temperature;BMP_pressure;BME280_temperature;BME280_humidity;BME280_pressure;Samples;Min_cycle;Max_cycle;Signal;HPM_P1;HPM_P2
2023/04/25 00:01:29;;;;;;;5.15;1.98;;;;;;;11.86;57.14;100267.44;4957602;28;20030;-42
2023/04/25 00:03:54;;;;;;;4.22;1.88;;;;;;;11.85;56.96;100264.88;4955770;28;20585;-41
2023/04/25 00:06:20;;;;;;;4.43;1.83;;;;;;;11.78;57.04;100269.75;4954952;28;20034;-41
2023/04/25 00:08:45;;;;;;;7.00;2.05;;;;;;;11.73;57.24;100269.22;4953591;28;20035;-42
2023/04/25 00:11:11;;;;;;;4.30;1.92;;;;;;;11.68;57.38;100261.63;4951200;28;20038;-41
2023/04/25 00:13:36;;;;;;;4.20;2.05;;;;;;;11.69;57.15;100257.22;4956595;28;20509;-41
2023/04/25 00:16:02;;;;;;;3.15;1.67;;;;;;;11.67;57.52;100256.50;4949502;28;20039;-41
2023/04/25 00:18:29;;;;;;;3.67;1.88;;;;;;;11.69;57.40;100254.59;4953759;28;20421;-41
2023/04/25 00:20:55;;;;;;;3.30;1.75;;;;;;;11.70;57.24;100258.91;4955343;28;20119;-41
2023/04/25 00:23:20;;;;;;;7.00;2.13;;;;;;;11.77;57.12;100257.53;4947856;28;20398;-41
2023/04/25 00:25:47;;;;;;;2.88;1.92;;;;;;;11.78;57.53;100255.75;4953582;28;20089;-41
2023/04/25 00:28:13;;;;;;;3.00;1.95;;;;;;;11.65;57.64;100251.31;4954517;28;20050;-41
2023/04/25 00:30:40;;;;;;;3.58;1.85;;;;;;;11.66;57.67;100249.53;4953291;28;20038;-41
2023/04/25 00:33:06;;;;;;;3.35;1.55;;;;;;;11.53;57.93;100247.75;4957243;28;20044;-42
2023/04/25 00:35:31;;;;;;;5.40;1.60;;;;;;;11.50;58.22;100244.47;4953451;28;20398;-42
2023/04/25 00:37:57;;;;;;;5.47;2.25;;;;;;;11.51;58.09;100254.94;4954829;28;20038;-41
2023/04/25 00:40:22;;;;;;;3.70;1.50;;;;;;;11.48;58.10;100255.13;4957555;28;20049;-41
2023/04/25 00:42:49;;;;;;;5.70;1.85;;;;;;;11.47;58.36;100261.34;4960534;28;20046;-42
2023/04/25 00:45:15;;;;;;;3.10;1.80;;;;;;;11.63;57.68;100262.91;4949248;28;20035;-42
2023/04/25 00:47:41;;;;;;;7.90;2.30;;;;;;;11.61;57.72;100264.81;4954802;28;20050;-42
2023/04/25 00:50:08;;;;;;;5.05;2.00;;;;;;;11.59;57.64;100264.94;4955563;28;20037;-41
2023/04/25 00:52:34;;;;;;;4.28;2.20;;;;;;;11.51;58.06;100261.97;4946592;28;20067;-42
2023/04/25 00:54:59;;;;;;;3.58;2.08;;;;;;;11.47;58.04;100266.63;4958422;28;20069;-41
2023/04/25 00:57:25;;;;;;;2.58;1.38;;;;;;;11.53;57.82;100271.47;4953548;28;20118;-41
2023/04/25 00:59:52;;;;;;;6.05;1.80;;;;;;;11.64;57.50;100267.25;4951469;28;20035;-40
2023/04/25 01:02:19;;;;;;;4.15;1.63;;;;;;;11.64;57.47;100275.16;4959957;28;20070;-41
2023/04/25 01:04:44;;;;;;;3.33;2.10;;;;;;;11.63;57.59;100273.47;4954320;28;20035;-41
2023/04/25 01:07:10;;;;;;;3.63;1.52;;;;;;;11.72;57.28;100262.28;4954368;28;20513;-42
2023/04/25 01:09:36;;;;;;;5.38;1.58;;;;;;;11.75;57.23;100259.41;4971981;28;20026;-42
2023/04/25 01:12:02;;;;;;;8.13;1.88;;;;;;;11.82;56.72;100260.69;4969904;28;20062;-41
2023/04/25 01:14:29;;;;;;;5.47;1.73;;;;;;;11.76;57.21;100263.72;4960306;28;20043;-41
2023/04/25 01:16:55;;;;;;;6.55;2.10;;;;;;;11.72;57.15;100259.66;4957942;28;20113;-41
2023/04/25 01:19:20;;;;;;;8.43;1.83;;;;;;;11.76;57.04;100261.09;4957913;28;20049;-41
2023/04/25 01:21:46;;;;;;;5.15;1.65;;;;;;;11.81;57.00;100259.00;4956073;28;20121;-42
2023/04/25 01:24:13;;;;;;;6.35;2.05;;;;;;;11.98;56.78;100259.59;4961324;28;20025;-41
2023/04/25 01:26:40;;;;;;;2.70;1.52;;;;;;;12.01;56.63;100260.25;4952076;28;20070;-41
2023/04/25 01:29:07;;;;;;;4.28;1.95;;;;;;;12.10;56.45;100264.00;4948759;28;20031;-41
2023/04/25 01:31:34;;;;;;;6.03;2.17;;;;;;;12.09;56.62;100264.97;4951596;28;21344;-41
2023/04/25 01:34:00;;;;;;;3.92;1.88;;;;;;;12.02;56.89;100266.38;4953517;28;20046;-41
2023/04/25 01:36:26;;;;;;;3.97;1.90;;;;;;;11.96;56.94;100264.13;4952925;28;20121;-43
2023/04/25 01:38:52;;;;;;;10.27;2.55;;;;;;;11.90;57.34;100263.59;4962548;28;20114;-42
2023/04/25 01:41:18;;;;;;;4.57;2.45;;;;;;;11.98;57.06;100259.59;4956734;28;20050;-42
2023/04/25 01:43:44;;;;;;;5.30;2.63;;;;;;;12.09;57.09;100267.59;4957108;28;20019;-41
2023/04/25 01:46:11;;;;;;;5.82;2.70;;;;;;;12.02;57.30;100263.72;4949928;28;20374;-41
2023/04/25 01:48:36;;;;;;;5.00;2.67;;;;;;;12.04;57.22;100265.31;4951673;28;20038;-43
2023/04/25 01:51:02;;;;;;;6.80;2.65;;;;;;;12.15;57.03;100269.81;4952326;28;20034;-42
2023/04/25 01:53:28;;;;;;;8.20;2.85;;;;;;;12.15;57.26;100267.16;4949017;28;20046;-42
2023/04/25 01:55:53;;;;;;;7.15;3.00;;;;;;;12.13;57.25;100269.06;4957493;28;20482;-42
2023/04/25 01:58:19;;;;;;;3.90;2.25;;;;;;;12.15;57.01;100269.81;4949006;28;20062;-41
2023/04/25 02:00:44;;;;;;;6.65;3.40;;;;;;;12.19;56.95;100267.78;4944717;28;20035;-42
2023/04/25 02:03:10;;;;;;;5.70;3.08;;;;;;;12.12;57.24;100272.66;4951028;28;20047;-41
2023/04/25 02:05:39;;;;;;;4.82;2.75;;;;;;;12.12;57.73;100266.53;4951802;28;20453;-42
2023/04/25 02:08:08;;;;;;;10.35;3.00;;;;;;;12.02;57.68;100269.00;4958267;28;20030;-42
2023/04/25 02:10:34;;;;;;;5.75;3.20;;;;;;;11.93;57.67;100272.25;4954848;28;20038;-42
2023/04/25 02:13:00;;;;;;;6.40;2.83;;;;;;;11.86;57.98;100271.84;4947501;28;20057;-41
2023/04/25 02:15:25;;;;;;;8.63;3.10;;;;;;;11.75;58.26;100269.97;4946368;28;20039;-41
2023/04/25 02:17:53;;;;;;;7.53;3.28;;;;;;;11.70;58.49;100266.81;4950829;28;20397;-42
2023/04/25 02:20:24;;;;;;;7.93;3.33;;;;;;;11.82;58.25;100265.09;4950946;28;20031;-42
2023/04/25 02:22:49;;;;;;;4.18;3.30;;;;;;;11.80;58.09;100267.03;4954560;28;20138;-42
2023/04/25 02:25:16;;;;;;;6.28;3.03;;;;;;;11.87;58.00;100263.81;4947901;28;20118;-41
2023/04/25 02:27:42;;;;;;;4.05;2.80;;;;;;;11.89;57.93;100267.19;4958242;28;20046;-41
2023/04/25 02:30:08;;;;;;;5.32;3.20;;;;;;;11.97;57.86;100263.19;4956472;28;20038;-42
2023/04/25 02:32:34;;;;;;;5.65;2.50;;;;;;;11.98;57.75;100262.22;4949905;28;20085;-41
2023/04/25 02:35:03;;;;;;;6.20;2.67;;;;;;;11.99;57.79;100263.94;4951591;28;20039;-41
2023/04/25 02:37:29;;;;;;;6.50;2.75;;;;;;;12.04;57.87;100265.31;4955032;28;20085;-41
2023/04/25 02:39:55;;;;;;;4.80;2.28;;;;;;;12.08;57.38;100270.34;4941157;28;20027;-42
2023/04/25 02:42:20;;;;;;;8.32;3.50;;;;;;;12.11;57.35;100268.34;4950790;28;20867;-41
2023/04/25 02:44:46;;;;;;;8.57;3.25;;;;;;;12.15;57.49;100267.16;4952945;28;20453;-42
2023/04/25 02:47:11;;;;;;;5.40;2.35;;;;;;;12.15;57.36;100272.44;4953533;28;20049;-41
2023/04/25 02:49:37;;;;;;;4.50;2.40;;;;;;;12.11;57.45;100268.34;4954132;28;20035;-42
2023/04/25 02:52:02;;;;;;;8.45;3.63;;;;;;;12.08;57.59;100270.34;4953440;28;20039;-41
2023/04/25 02:54:28;;;;;;;5.22;2.50;;;;;;;12.01;57.75;100270.78;4952851;28;20031;-42
2023/04/25 02:56:53;;;;;;;8.02;2.90;;;;;;;11.99;57.71;100272.69;4954322;28;20397;-41
2023/04/25 02:59:18;;;;;;;3.85;2.13;;;;;;;11.98;57.83;100265.72;4952062;28;20126;-42
2023/04/25 03:01:45;;;;;;;5.20;3.30;;;;;;;11.95;57.67;100259.81;4954923;28;20117;-42
2023/04/25 03:04:10;;;;;;;6.00;2.88;;;;;;;11.98;57.84;100262.22;4949797;28;20609;-41
2023/04/25 03:06:36;;;;;;;7.30;3.00;;;;;;;12.01;57.43;100257.59;4958763;28;20115;-41
2023/04/25 03:09:01;;;;;;;6.93;2.72;;;;;;;12.11;57.35;100255.16;4965634;28;20105;-42
2023/04/25 03:11:52;;;;;;;6.80;2.40;;;;;;;12.10;57.59;100261.38;4948834;28;21642;-41
2023/04/25 03:14:17;;;;;;;6.53;3.35;;;;;;;12.03;57.65;100258.34;4957418;28;20041;-42
2023/04/25 03:16:42;;;;;;;6.15;2.80;;;;;;;11.98;57.67;100252.53;4954579;28;20035;-41
2023/04/25 03:19:08;;;;;;;5.18;2.53;;;;;;;12.00;57.74;100249.81;4953317;28;20038;-41
2023/04/25 03:21:35;;;;;;;9.10;3.17;;;;;;;12.02;57.64;100261.09;4954973;28;20042;-41
2023/04/25 03:24:02;;;;;;;7.10;3.53;;;;;;;12.01;57.64;100260.25;4955773;28;20702;-41
2023/04/25 03:26:28;;;;;;;5.22;2.55;;;;;;;11.98;57.77;100262.22;4950236;28;20057;-41
2023/04/25 03:28:53;;;;;;;6.43;3.20;;;;;;;11.92;57.77;100260.00;4954188;28;20381;-41
2023/04/25 03:31:19;;;;;;;5.30;2.70;;;;;;;11.86;57.69;100256.03;4953874;28;20543;-42
2023/04/25 03:33:45;;;;;;;7.50;2.63;;;;;;;11.84;57.79;100253.50;4951756;28;20379;-42
2023/04/25 03:36:10;;;;;;;4.35;2.70;;;;;;;11.90;57.66;100249.59;4953770;28;20058;-42
2023/04/25 03:38:36;;;;;;;5.78;3.10;;;;;;;11.92;57.51;100265.28;4950586;28;21110;-42
2023/04/25 03:41:01;;;;;;;12.82;3.10;;;;;;;11.89;57.37;100263.72;4954485;28;20126;-42
2023/04/25 03:43:27;;;;;;;8.70;2.60;;;;;;;11.77;57.49;100268.06;4951138;28;20038;-43
2023/04/25 03:45:52;;;;;;;11.23;4.07;;;;;;;11.75;57.50;100262.06;4954102;28;20030;-41
2023/04/25 03:48:21;;;;;;;5.60;2.83;;;;;;;11.77;57.49;100257.53;4952394;28;20031;-42
2023/04/25 03:50:46;;;;;;;8.50;2.88;;;;;;;11.80;57.43;100262.56;4956932;28;20121;-41
2023/04/25 03:53:12;;;;;;;6.75;3.10;;;;;;;11.82;57.26;100268.59;4956428;28;20031;-41
2023/04/25 03:55:37;;;;;;;5.90;2.53;;;;;;;11.82;57.41;100265.94;4948060;28;27500;-42
2023/04/25 03:58:03;;;;;;;7.90;3.08;;;;;;;11.79;57.35;100275.88;4955603;28;20062;-44
2023/04/25 04:00:28;;;;;;;7.07;3.03;;;;;;;11.82;57.36;100273.88;4957499;28;20062;-41
2023/04/25 04:02:53;;;;;;;6.70;3.05;;;;;;;11.84;57.71;100269.31;4952352;28;20095;-41
2023/04/25 04:05:19;;;;;;;8.95;3.17;;;;;;;11.89;57.04;100269.81;4953966;28;20037;-41
2023/04/25 04:07:44;;;;;;;8.68;3.15;;;;;;;11.86;57.25;100277.13;4949658;28;20034;-41
2023/04/25 04:10:10;;;;;;;7.60;3.25;;;;;;;11.87;57.16;100266.44;4957304;28;20043;-41
2023/04/25 04:12:36;;;;;;;5.10;2.72;;;;;;;11.75;57.44;100272.59;4955478;28;20035;-41
2023/04/25 04:15:03;;;;;;;6.70;2.78;;;;;;;11.81;57.29;100272.16;4955532;28;20062;-42
2023/04/25 04:17:29;;;;;;;5.57;1.88;;;;;;;11.73;57.58;100277.13;4950122;28;20024;-41
2023/04/25 04:19:55;;;;;;;6.03;2.90;;;;;;;11.65;57.74;100282.09;4954257;28;20077;-41
2023/04/25 04:22:20;;;;;;;8.75;3.30;;;;;;;11.73;57.30;100282.41;4954056;28;20035;-43
2023/04/25 04:24:47;;;;;;;12.60;3.53;;;;;;;11.78;57.30;100277.66;4958810;28;20046;-42
2023/04/25 04:27:13;;;;;;;8.05;3.72;;;;;;;11.70;57.71;100283.47;4955820;28;20117;-43
2023/04/25 04:29:39;;;;;;;9.93;3.65;;;;;;;11.66;57.82;100283.78;4953340;28;20030;-41
2023/04/25 04:32:04;;;;;;;6.32;2.78;;;;;;;11.60;57.83;100282.44;4947935;28;20034;-43
2023/04/25 04:34:30;;;;;;;8.13;3.33;;;;;;;11.59;57.81;100292.09;4948829;28;20027;-42
2023/04/25 04:36:57;;;;;;;9.70;3.30;;;;;;;11.65;57.82;100287.38;4939302;28;20047;-43
2023/04/25 04:39:22;;;;;;;7.38;2.70;;;;;;;11.65;57.82;100295.28;4949066;28;20042;-42
2023/04/25 04:41:48;;;;;;;6.63;3.38;;;;;;;11.76;57.52;100292.72;4948546;28;20038;-43
2023/04/25 04:44:15;;;;;;;10.80;3.60;;;;;;;11.87;57.46;100290.19;4950466;28;20022;-42
2023/04/25 04:46:41;;;;;;;6.38;2.75;;;;;;;11.97;56.94;100295.66;4957052;28;20049;-42
2023/04/25 04:49:11;;;;;;;7.90;3.63;;;;;;;12.06;57.03;100301.28;4960759;28;20030;-42
2023/04/25 04:51:37;;;;;;;9.93;3.55;;;;;;;11.80;57.44;100302.13;4963319;28;20038;-44
2023/04/25 04:54:03;;;;;;;8.43;3.13;;;;;;;11.87;57.36;100310.44;4959145;28;20034;-42
2023/04/25 04:56:30;;;;;;;11.27;4.10;;;;;;;11.94;57.32;100300.31;4949422;28;20029;-42
2023/04/25 04:58:57;;;;;;;9.68;4.78;;;;;;;11.90;57.31;100304.97;4962072;28;20492;-42
2023/04/25 05:01:23;;;;;;;7.57;3.15;;;;;;;11.92;57.24;100302.19;4948868;28;20038;-42
2023/04/25 05:03:49;;;;;;;7.47;3.22;;;;;;;11.81;57.62;100309.06;4953434;28;20571;-42
2023/04/25 05:06:14;;;;;;;12.43;4.00;;;;;;;11.82;57.55;100307.28;4959784;28;20034;-42
2023/04/25 05:08:40;;;;;;;11.63;4.13;;;;;;;11.73;57.70;100303.47;4958223;28;20404;-42
2023/04/25 05:11:05;;;;;;;7.10;3.35;;;;;;;11.75;57.75;100301.59;4963342;28;20035;-42
2023/04/25 05:13:31;;;;;;;10.48;3.60;;;;;;;11.80;57.71;100302.13;4962117;28;21260;-42
2023/04/25 05:15:56;;;;;;;10.00;3.47;;;;;;;11.80;57.76;100302.13;4958312;28;20042;-41
2023/04/25 05:18:22;;;;;;;9.25;4.18;;;;;;;11.87;57.62;100299.91;4958485;28;20054;-42
2023/04/25 05:20:47;;;;;;;8.55;3.67;;;;;;;11.85;57.51;100302.66;4947323;28;20058;-42
2023/04/25 05:23:13;;;;;;;9.98;3.92;;;;;;;11.87;57.51;100300.72;4958113;28;20043;-42
2023/04/25 05:25:38;;;;;;;8.63;3.53;;;;;;;11.89;57.80;100305.91;4966361;28;20026;-42
2023/04/25 05:28:04;;;;;;;10.55;3.83;;;;;;;11.92;57.66;100300.41;4964452;28;20027;-42
2023/04/25 05:30:30;;;;;;;8.35;3.35;;;;;;;11.96;57.51;100312.41;4957768;28;20122;-42
2023/04/25 05:32:55;;;;;;;9.75;4.00;;;;;;;11.92;57.76;100312.75;4962099;28;20405;-42
2023/04/25 05:35:21;;;;;;;13.75;3.10;;;;;;;11.99;57.57;100319.31;4958812;28;20049;-42
2023/04/25 05:37:46;;;;;;;10.73;4.53;;;;;;;11.85;57.73;100318.47;4959775;28;21420;-42
2023/04/25 05:40:12;;;;;;;9.38;3.25;;;;;;;11.95;57.55;100321.28;4963775;28;20429;-42
2023/04/25 05:42:37;;;;;;;12.27;3.50;;;;;;;11.99;57.61;100324.59;4960384;28;20702;-44
2023/04/25 05:45:03;;;;;;;14.15;4.00;;;;;;;12.11;57.23;100328.13;4959071;28;20030;-42
2023/04/25 05:47:28;;;;;;;8.63;3.67;;;;;;;12.11;57.23;100333.41;4958085;28;20039;-42
2023/04/25 05:49:54;;;;;;;13.85;4.85;;;;;;;12.15;56.95;100325.19;4957443;28;20046;-42
2023/04/25 05:52:19;;;;;;;7.97;3.75;;;;;;;12.09;57.24;100330.91;4960792;28;20030;-42
2023/04/25 05:54:45;;;;;;;7.75;3.47;;;;;;;12.00;57.44;100326.28;4961072;28;20501;-42
2023/04/25 05:57:20;;;;;;;10.13;3.60;;;;;;;12.12;57.47;100325.41;4960178;28;20599;-42
2023/04/25 05:59:46;;;;;;;7.88;3.70;;;;;;;12.03;57.65;100336.59;4959639;28;20026;-42
2023/04/25 06:02:11;;;;;;;7.65;3.83;;;;;;;12.00;57.45;100332.38;4957888;28;20035;-42
2023/04/25 06:04:36;;;;;;;9.18;3.60;;;;;;;12.00;57.46;100332.38;4961985;28;20057;-42
2023/04/25 06:07:02;;;;;;;8.55;3.28;;;;;;;12.07;57.46;100345.97;4958587;28;20472;-41
2023/04/25 06:09:27;;;;;;;6.72;2.85;;;;;;;12.07;57.29;100347.78;4965378;28;20113;-42
2023/04/25 06:11:53;;;;;;;7.57;3.05;;;;;;;12.09;57.30;100343.25;4963561;28;20035;-41
2023/04/25 06:14:18;;;;;;;14.75;3.10;;;;;;;12.03;57.25;100345.34;4956973;28;20043;-42
2023/04/25 06:16:43;;;;;;;6.00;2.88;;;;;;;11.99;57.37;100341.25;4966171;28;20468;-42
2023/04/25 06:19:09;;;;;;;7.45;2.65;;;;;;;11.95;57.73;100339.72;4963989;28;20255;-42
2023/04/25 06:21:34;;;;;;;6.00;2.67;;;;;;;12.07;57.17;100347.78;4964773;28;20037;-42
2023/04/25 06:24:00;;;;;;;7.85;2.83;;;;;;;11.89;58.16;100348.91;4963950;28;20031;-44
2023/04/25 06:26:25;;;;;;;7.93;2.70;;;;;;;11.82;57.95;100352.94;4956487;28;20041;-42
2023/04/25 06:28:50;;;;;;;9.63;2.67;;;;;;;11.71;58.43;100353.69;4958020;28;20490;-42
2023/04/25 06:31:16;;;;;;;7.40;3.42;;;;;;;11.62;58.65;100342.91;4963792;28;20372;-42
2023/04/25 06:33:41;;;;;;;7.70;3.40;;;;;;;11.65;58.41;100350.63;4958626;28;20112;-42
2023/04/25 06:36:07;;;;;;;7.80;3.70;;;;;;;11.52;59.13;100362.00;4957085;28;20038;-42
2023/04/25 06:38:34;;;;;;;7.93;3.70;;;;;;;11.51;59.06;100357.69;4956242;28;20031;-41
2023/04/25 06:41:00;;;;;;;6.93;3.05;;;;;;;11.63;59.01;100352.50;4958957;28;20505;-42
2023/04/25 06:43:25;;;;;;;8.75;3.35;;;;;;;11.64;58.94;100354.19;4964058;28;20030;-41
2023/04/25 06:45:51;;;;;;;11.75;3.50;;;;;;;11.78;58.51;100355.91;4956121;28;20030;-42
2023/04/25 06:48:16;;;;;;;7.25;2.90;;;;;;;11.65;59.27;100361.16;4963240;28;20122;-42
2023/04/25 06:50:41;;;;;;;6.22;2.92;;;;;;;11.59;59.55;100365.06;4955183;28;20015;-42
2023/04/25 06:53:08;;;;;;;10.27;3.58;;;;;;;11.46;60.13;100365.03;4963014;28;20043;-43
2023/04/25 06:55:34;;;;;;;10.43;3.10;;;;;;;11.61;59.50;100357.03;4964233;28;20042;-42
2023/04/25 06:58:00;;;;;;;9.43;3.20;;;;;;;11.72;59.26;100354.53;4959427;28;20030;-42
2023/04/25 07:00:26;;;;;;;8.30;3.50;;;;;;;11.80;59.28;100354.84;4963541;28;20039;-42
2023/04/25 07:02:51;;;;;;;7.15;2.85;;;;;;;11.95;58.87;100362.63;4956162;28;20104;-42
2023/04/25 07:05:17;;;;;;;8.57;4.15;;;;;;;11.89;59.42;100358.63;4957822;28;20108;-42
2023/04/25 07:07:42;;;;;;;8.73;3.00;;;;;;;11.85;59.38;100360.66;4966518;28;20118;-42
2023/04/25 07:10:08;;;;;;;8.93;3.30;;;;;;;11.89;59.18;100364.72;4967769;28;20103;-42
2023/04/25 07:12:33;;;;;;;8.38;3.20;;;;;;;12.00;58.83;100368.47;4961585;28;20096;-42
2023/04/25 07:14:59;;;;;;;10.13;3.90;;;;;;;12.00;59.00;100358.75;4966091;28;20111;-42
2023/04/25 07:17:24;;;;;;;7.97;3.53;;;;;;;12.13;58.71;100369.28;4957564;28;20567;-42
2023/04/25 07:19:50;;;;;;;9.77;3.08;;;;;;;12.18;58.51;100372.44;4964877;28;20050;-43
2023/04/25 07:22:15;;;;;;;7.18;2.90;;;;;;;12.25;58.16;100379.94;4967484;28;20031;-43
2023/04/25 07:24:40;;;;;;;14.07;2.95;;;;;;;12.14;58.62;100372.75;4958580;28;20498;-42
2023/04/25 07:27:06;;;;;;;5.95;3.45;;;;;;;12.12;58.38;100378.16;4966513;28;20489;-42
2023/04/25 07:29:31;;;;;;;6.40;2.28;;;;;;;12.09;58.58;100383.63;4961265;28;20038;-42
2023/04/25 07:31:57;;;;;;;10.18;2.63;;;;;;;12.01;58.43;100372.78;4960904;28;20089;-42
2023/04/25 07:34:22;;;;;;;5.53;2.25;;;;;;;12.09;58.52;100385.44;4963273;28;20034;-43
2023/04/25 07:36:48;;;;;;;9.05;3.00;;;;;;;12.09;58.42;100388.91;4960933;28;20035;-43
2023/04/25 07:39:13;;;;;;;8.35;2.78;;;;;;;12.00;58.64;100384.28;4954768;28;20039;-42
2023/04/25 07:41:39;;;;;;;5.63;2.53;;;;;;;12.04;58.65;100391.00;4959881;28;20138;-41
2023/04/25 07:44:04;;;;;;;7.45;3.20;;;;;;;11.97;59.02;100395.84;4966900;28;20027;-42
2023/04/25 07:46:30;;;;;;;11.63;2.70;;;;;;;11.84;59.59;100387.97;4959074;28;20509;-42
2023/04/25 07:48:55;;;;;;;7.50;2.70;;;;;;;11.81;59.58;100390.78;4962836;28;20026;-41
2023/04/25 07:51:21;;;;;;;7.95;3.05;;;;;;;11.86;59.24;100398.38;4952391;28;20039;-42
2023/04/25 07:53:47;;;;;;;9.20;2.70;;;;;;;11.89;59.23;100399.00;4958061;28;20034;-43
2023/04/25 07:56:13;;;;;;;5.65;2.13;;;;;;;11.80;59.65;100399.66;4962710;28;20034;-42
2023/04/25 07:58:38;;;;;;;9.43;2.85;;;;;;;11.97;58.95;100392.38;4955715;28;20031;-43
2023/04/25 08:01:04;;;;;;;5.57;2.72;;;;;;;11.95;59.36;100403.00;4956812;28;20401;-42
2023/04/25 08:03:29;;;;;;;6.43;2.60;;;;;;;11.85;59.75;100402.81;4964399;28;20031;-42
2023/04/25 08:05:55;;;;;;;7.60;2.40;;;;;;;11.89;59.60;100404.28;4954661;28;20098;-42
2023/04/25 08:08:21;;;;;;;7.72;2.70;;;;;;;11.89;59.94;100417.47;4959411;28;20034;-42
2023/04/25 08:10:47;;;;;;;7.20;2.63;;;;;;;11.85;59.95;100423.91;4961154;28;20037;-42
2023/04/25 08:13:13;;;;;;;5.40;2.38;;;;;;;11.72;60.41;100423.06;4958979;28;20035;-42
2023/04/25 08:15:39;;;;;;;6.30;2.67;;;;;;;11.65;60.31;100421.78;4952461;28;20039;-43
2023/04/25 08:18:04;;;;;;;8.15;3.15;;;;;;;11.62;60.64;100432.53;4959289;28;20026;-41
2023/04/25 08:20:30;;;;;;;6.68;2.60;;;;;;;11.52;60.97;100422.59;4957943;28;20085;-42
2023/04/25 08:22:55;;;;;;;9.85;3.25;;;;;;;11.44;61.55;100435.44;4952852;28;20097;-42
2023/04/25 08:25:21;;;;;;;12.00;2.83;;;;;;;11.55;60.78;100438.22;4952470;28;20027;-41
2023/04/25 08:27:46;;;;;;;7.68;2.90;;;;;;;11.53;61.21;100440.09;4957321;28;20552;-42
2023/04/25 08:30:12;;;;;;;5.80;2.47;;;;;;;11.44;61.90;100452.09;4961376;28;20027;-42
2023/04/25 08:32:38;;;;;;;8.48;3.00;;;;;;;11.34;61.81;100452.78;4959928;28;20030;-42
2023/04/25 08:35:04;;;;;;;9.50;2.70;;;;;;;11.38;61.26;100456.94;4961874;28;20049;-42
2023/04/25 08:37:29;;;;;;;11.82;3.60;;;;;;;11.43;60.81;100463.59;4957129;28;20043;-42
2023/04/25 08:39:56;;;;;;;14.25;3.15;;;;;;;11.38;60.57;100465.66;4954603;28;20073;-42
2023/04/25 08:42:22;;;;;;;15.85;3.65;;;;;;;11.38;60.12;100467.47;4961297;28;20723;-41
2023/04/25 08:44:48;;;;;;;16.30;3.97;;;;;;;11.37;59.43;100471.88;4956842;28;20035;-42
2023/04/25 08:47:14;;;;;;;19.65;4.20;;;;;;;11.46;59.13;100470.44;4959902;28;20034;-42
2023/04/25 08:49:45;;;;;;;15.82;3.25;;;;;;;11.60;58.38;100472.16;4952893;28;20039;-42
2023/04/25 08:52:13;;;;;;;8.27;2.88;;;;;;;11.64;58.13;100478.06;4960773;28;20034;-41
2023/04/25 08:54:44;;;;;;;12.70;2.65;;;;;;;11.61;57.34;100470.34;4958926;28;20031;-42
2023/04/25 08:57:09;;;;;;;7.65;3.28;;;;;;;11.65;57.66;100480.59;4947620;28;20047;-41
2023/04/25 08:59:36;;;;;;;12.35;2.47;;;;;;;11.58;56.92;100469.59;4956834;28;20493;-43
2023/04/25 09:02:02;;;;;;;15.27;4.22;;;;;;;11.86;56.88;100478.34;4956490;28;20089;-43
2023/04/25 09:04:31;;;;;;;13.88;3.08;;;;;;;11.88;56.21;100475.59;4953429;28;20036;-44
2023/04/25 09:06:56;;;;;;;11.55;2.97;;;;;;;11.73;55.75;100491.47;4962363;28;20042;-42
2023/04/25 09:09:23;;;;;;;16.65;3.47;;;;;;;11.82;55.62;100479.47;4958332;28;20027;-42
2023/04/25 09:11:49;;;;;;;13.75;3.20;;;;;;;11.95;55.39;100484.75;4954739;28;20126;-42
2023/04/25 09:14:17;;;;;;;7.25;2.65;;;;;;;12.03;54.40;100479.00;4955285;28;20460;-42
2023/04/25 09:16:59;;;;;;;12.07;3.13;;;;;;;12.20;53.79;100491.03;4955346;28;20089;-43
2023/04/25 09:19:34;;;;;;;18.75;4.00;;;;;;;12.26;53.58;100490.59;4955621;28;20023;-42
2023/04/25 09:22:02;;;;;;;10.30;2.78;;;;;;;12.32;53.82;100499.91;4953546;28;20027;-43
2023/04/25 09:24:33;;;;;;;16.15;2.90;;;;;;;12.07;52.67;100503.38;4960849;28;20054;-42
2023/04/25 09:26:59;;;;;;;10.23;2.70;;;;;;;12.20;53.13;100512.16;4962010;28;20031;-42
2023/04/25 09:29:33;;;;;;;6.68;2.55;;;;;;;12.13;51.35;100513.50;4953510;28;20289;-42
2023/04/25 09:32:20;;;;;;;11.75;2.38;;;;;;;12.25;50.95;100512.66;4963999;28;20609;-42
2023/04/25 09:34:57;;;;;;;11.15;2.92;;;;;;;12.40;51.14;100518.69;4962280;28;20042;-42
2023/04/25 09:37:25;;;;;;;9.82;2.22;;;;;;;12.38;50.34;100514.47;4961338;28;20546;-42
2023/04/25 09:40:05;;;;;;;14.27;2.35;;;;;;;12.43;49.28;100520.25;4966219;28;20035;-42
2023/04/25 09:42:31;;;;;;;8.60;2.10;;;;;;;12.61;50.45;100510.22;4975986;28;20023;-42
2023/04/25 09:44:58;;;;;;;11.57;2.45;;;;;;;12.75;50.08;100491.63;4962660;28;20077;-43
2023/04/25 09:47:26;;;;;;;8.52;2.63;;;;;;;12.92;50.02;100516.00;4962504;28;20038;-42
2023/04/25 09:49:53;;;;;;;17.67;2.63;;;;;;;12.99;50.47;100529.59;4955940;28;20571;-42
2023/04/25 09:52:21;;;;;;;13.20;2.65;;;;;;;12.93;48.94;100513.22;4956248;28;20158;-43
2023/04/25 09:54:47;;;;;;;15.80;4.95;;;;;;;13.03;48.70;100510.78;4961722;28;20034;-42
2023/04/25 09:57:16;;;;;;;9.93;2.33;;;;;;;13.09;48.57;100505.03;4956614;28;20035;-42
2023/04/25 09:59:46;;;;;;;13.80;3.30;;;;;;;12.91;45.73;100509.00;4961335;28;20058;-42
2023/04/25 10:02:13;;;;;;;14.50;2.10;;;;;;;12.86;48.04;100514.59;4959282;28;20090;-42
2023/04/25 10:04:39;;;;;;;12.50;3.40;;;;;;;12.92;48.49;100503.63;4947802;28;20034;-42
2023/04/25 10:07:08;;;;;;;13.80;2.88;;;;;;;13.08;47.95;100510.44;4958099;28;20045;-42
2023/04/25 10:09:39;;;;;;;11.02;2.53;;;;;;;12.92;47.43;100503.63;4952480;28;20063;-42
2023/04/25 10:12:05;;;;;;;9.65;2.78;;;;;;;12.99;47.68;100514.56;4947881;28;20023;-42
2023/04/25 10:14:31;;;;;;;11.63;2.90;;;;;;;13.15;47.32;100514.34;4955009;28;20035;-42
2023/04/25 10:17:01;;;;;;;13.23;2.83;;;;;;;13.25;47.17;100510.06;4953579;28;20054;-43
2023/04/25 10:19:27;;;;;;;7.43;3.05;;;;;;;13.37;46.86;100521.53;4951983;28;20031;-42
2023/04/25 10:22:07;;;;;;;7.95;2.03;;;;;;;13.29;44.75;100518.59;4952124;28;20035;-42
2023/04/25 10:24:33;;;;;;;11.82;3.13;;;;;;;13.28;46.69;100524.84;4958283;28;20027;-42
2023/04/25 10:26:59;;;;;;;10.70;3.85;;;;;;;13.18;46.53;100529.94;4955104;28;20453;-41
2023/04/25 10:29:25;;;;;;;15.07;2.80;;;;;;;13.03;47.03;100542.47;4953253;28;20046;-42
2023/04/25 10:31:51;;;;;;;13.25;3.33;;;;;;;12.83;45.99;100532.47;4944267;28;20027;-42
2023/04/25 10:34:17;;;;;;;15.25;2.28;;;;;;;12.82;46.83;100555.41;4952004;28;20031;-41
2023/04/25 10:36:48;;;;;;;13.45;2.22;;;;;;;12.67;47.04;100552.03;4956612;28;20492;-42
2023/04/25 10:39:22;;;;;;;12.23;2.67;;;;;;;12.55;45.68;100547.59;4953495;28;20129;-43
2023/04/25 10:41:52;;;;;;;13.23;2.78;;;;;;;12.66;47.17;100550.31;4951228;28;20027;-41
2023/04/25 10:44:18;;;;;;;15.10;2.40;;;;;;;12.65;46.85;100543.34;4953315;28;20035;-42
2023/04/25 10:46:45;;;;;;;8.77;1.95;;;;;;;12.44;45.35;100543.06;4955671;28;20031;-42
2023/04/25 10:49:29;;;;;;;11.32;3.65;;;;;;;12.42;43.38;100535.25;4950801;28;20035;-41
2023/04/25 10:52:16;;;;;;;9.32;1.92;;;;;;;12.39;44.01;100551.28;4954479;28;20034;-43
2023/04/25 10:54:46;;;;;;;12.27;2.63;;;;;;;12.34;45.17;100553.38;4953293;28;20041;-43
2023/04/25 10:57:31;;;;;;;6.10;1.90;;;;;;;12.41;43.28;100552.03;4962520;28;20034;-42
2023/04/25 11:00:20;;;;;;;7.75;2.78;;;;;;;12.43;43.47;100558.06;4957734;28;20027;-43
2023/04/25 11:02:51;;;;;;;17.40;2.72;;;;;;;12.59;45.28;100559.63;4949474;28;20126;-41
2023/04/25 11:05:34;;;;;;;6.32;2.25;;;;;;;12.74;43.45;100563.84;4954708;28;20039;-42
2023/04/25 11:08:01;;;;;;;8.45;2.00;;;;;;;12.80;44.94;100563.41;4955863;28;20085;-41
2023/04/25 11:10:28;;;;;;;10.48;2.10;;;;;;;12.96;44.27;100572.91;4953705;28;20035;-42
2023/04/25 11:12:53;;;;;;;15.20;3.05;;;;;;;13.01;44.43;100565.50;4953422;28;20052;-42
2023/04/25 11:15:19;;;;;;;13.05;2.10;;;;;;;13.05;43.70;100559.06;4958537;28;20054;-41
2023/04/25 11:17:46;;;;;;;12.50;2.08;;;;;;;12.87;42.84;100563.81;4956482;28;20066;-42
2023/04/25 11:20:13;;;;;;;8.00;2.03;;;;;;;12.91;42.97;100570.59;4955987;28;20042;-42
2023/04/25 11:22:42;;;;;;;6.55;2.35;;;;;;;12.74;41.35;100563.00;4954597;28;20509;-42